sensor_id;sensor_type;location;lat;lon;timestamp;P1;durP1;ratioP1;P2;durP2;ratioP2
22160;SDS011;49035;48.812;11.762;2023-08-31T00:00:41;12.15;;;9.52;;
22160;SDS011;49035;48.812;11.762;2023-08-31T00:03:07;14.02;;;9.32;;
22160;SDS011;49035;48.812;11.762;2023-08-31T00:05:36;12.15;;;9.00;;
22160;SDS011;49035;48.812;11.762;2023-08-31T00:08:02;11.48;;;8.63;;
22160;SDS011;49035;48.812;11.762;2023-08-31T00:10:28;13.02;;;9.30;;
22160;SDS011;49035;48.812;11.762;2023-08-31T00:12:54;12.07;;;8.57;;
22160;SDS011;49035;48.812;11.762;2023-08-31T00:15:20;10.15;;;8.25;;
22160;SDS011;49035;48.812;11.762;2023-08-31T00:17:46;13.13;;;8.52;;
22160;SDS011;49035;48.812;11.762;2023-08-31T00:20:12;13.63;;;9.48;;
22160;SDS011;49035;48.812;11.762;2023-08-31T00:22:37;11.65;;;8.60;;
22160;SDS011;49035;48.812;11.762;2023-08-31T00:25:04;12.40;;;8.27;;
22160;SDS011;49035;48.812;11.762;2023-08-31T00:27:33;13.70;;;9.27;;
22160;SDS011;49035;48.812;11.762;2023-08-31T00:30:02;12.77;;;8.35;;
22160;SDS011;49035;48.812;11.762;2023-08-31T00:32:32;13.90;;;8.57;;
22160;SDS011;49035;48.812;11.762;2023-08-31T00:34:59;13.30;;;8.68;;
22160;SDS011;49035;48.812;11.762;2023-08-31T00:37:24;12.07;;;7.78;;
22160;SDS011;49035;48.812;11.762;2023-08-31T00:39:50;12.02;;;8.23;;
22160;SDS011;49035;48.812;11.762;2023-08-31T00:42:17;11.43;;;7.95;;
22160;SDS011;49035;48.812;11.762;2023-08-31T00:44:43;12.70;;;7.95;;
22160;SDS011;49035;48.812;11.762;2023-08-31T00:47:12;14.13;;;8.63;;
22160;SDS011;49035;48.812;11.762;2023-08-31T00:49:38;11.10;;;8.70;;
22160;SDS011;49035;48.812;11.762;2023-08-31T00:52:05;13.70;;;8.48;;
22160;SDS011;49035;48.812;11.762;2023-08-31T00:54:32;11.35;;;8.48;;
22160;SDS011;49035;48.812;11.762;2023-08-31T00:56:58;12.27;;;9.30;;
22160;SDS011;49035;48.812;11.762;2023-08-31T00:59:24;9.98;;;7.72;;
22160;SDS011;49035;48.812;11.762;2023-08-31T01:01:55;10.35;;;8.75;;
22160;SDS011;49035;48.812;11.762;2023-08-31T01:10:22;11.13;;;7.90;;
22160;SDS011;49035;48.812;11.762;2023-08-31T01:12:52;11.82;;;8.07;;
22160;SDS011;49035;48.812;11.762;2023-08-31T01:15:21;12.88;;;9.43;;
22160;SDS011;49035;48.812;11.762;2023-08-31T01:17:47;14.27;;;9.40;;
22160;SDS011;49035;48.812;11.762;2023-08-31T01:20:19;15.38;;;9.60;;
22160;SDS011;49035;48.812;11.762;2023-08-31T01:23:02;13.95;;;10.25;;
22160;SDS011;49035;48.812;11.762;2023-08-31T01:25:32;15.05;;;11.10;;
22160;SDS011;49035;48.812;11.762;2023-08-31T01:28:01;15.35;;;10.77;;
22160;SDS011;49035;48.812;11.762;2023-08-31T01:30:30;17.05;;;10.27;;
22160;SDS011;49035;48.812;11.762;2023-08-31T01:32:59;14.60;;;10.15;;
22160;SDS011;49035;48.812;11.762;2023-08-31T01:35:25;12.80;;;9.43;;
22160;SDS011;49035;48.812;11.762;2023-08-31T01:37:55;13.50;;;9.18;;
22160;SDS011;49035;48.812;11.762;2023-08-31T01:43:08;14.10;;;9.70;;
22160;SDS011;49035;48.812;11.762;2023-08-31T01:45:35;16.85;;;11.43;;
22160;SDS011;49035;48.812;11.762;2023-08-31T01:48:05;16.92;;;9.75;;
22160;SDS011;49035;48.812;11.762;2023-08-31T01:50:31;15.60;;;9.77;;
22160;SDS011;49035;48.812;11.762;2023-08-31T01:52:57;14.60;;;10.82;;
22160;SDS011;49035;48.812;11.762;2023-08-31T01:55:23;16.60;;;10.50;;
22160;SDS011;49035;48.812;11.762;2023-08-31T01:57:49;14.70;;;9.82;;
22160;SDS011;49035;48.812;11.762;2023-08-31T02:00:15;15.70;;;10.52;;
22160;SDS011;49035;48.812;11.762;2023-08-31T02:02:42;14.52;;;10.63;;
22160;SDS011;49035;48.812;11.762;2023-08-31T02:05:08;17.58;;;11.30;;
22160;SDS011;49035;48.812;11.762;2023-08-31T02:07:35;16.35;;;11.82;;
22160;SDS011;49035;48.812;11.762;2023-08-31T02:10:00;15.73;;;11.10;;
22160;SDS011;49035;48.812;11.762;2023-08-31T02:12:26;17.17;;;10.55;;
22160;SDS011;49035;48.812;11.762;2023-08-31T02:14:52;13.52;;;10.65;;
22160;SDS011;49035;48.812;11.762;2023-08-31T02:17:17;15.52;;;10.68;;
22160;SDS011;49035;48.812;11.762;2023-08-31T02:19:43;18.42;;;11.73;;
22160;SDS011;49035;48.812;11.762;2023-08-31T02:22:08;17.70;;;11.77;;
22160;SDS011;49035;48.812;11.762;2023-08-31T02:24:34;16.98;;;10.63;;
22160;SDS011;49035;48.812;11.762;2023-08-31T02:27:00;13.80;;;10.30;;
22160;SDS011;49035;48.812;11.762;2023-08-31T02:29:25;14.15;;;11.10;;
22160;SDS011;49035;48.812;11.762;2023-08-31T02:31:51;12.85;;;10.05;;
22160;SDS011;49035;48.812;11.762;2023-08-31T02:34:16;16.38;;;9.90;;
22160;SDS011;49035;48.812;11.762;2023-08-31T02:36:42;13.00;;;9.90;;
22160;SDS011;49035;48.812;11.762;2023-08-31T02:39:07;15.95;;;9.77;;
22160;SDS011;49035;48.812;11.762;2023-08-31T02:41:33;13.82;;;9.27;;
22160;SDS011;49035;48.812;11.762;2023-08-31T02:43:59;14.77;;;8.77;;
22160;SDS011;49035;48.812;11.762;2023-08-31T02:46:25;12.05;;;9.05;;
22160;SDS011;49035;48.812;11.762;2023-08-31T02:48:50;12.00;;;8.07;;
22160;SDS011;49035;48.812;11.762;2023-08-31T02:51:16;15.13;;;8.65;;
22160;SDS011;49035;48.812;11.762;2023-08-31T02:53:41;9.95;;;8.23;;
22160;SDS011;49035;48.812;11.762;2023-08-31T02:56:07;9.10;;;7.13;;
22160;SDS011;49035;48.812;11.762;2023-08-31T02:58:33;9.80;;;7.32;;
22160;SDS011;49035;48.812;11.762;2023-08-31T03:01:13;8.23;;;6.50;;
22160;SDS011;49035;48.812;11.762;2023-08-31T03:03:39;7.93;;;6.13;;
22160;SDS011;49035;48.812;11.762;2023-08-31T03:06:06;7.60;;;6.00;;
22160;SDS011;49035;48.812;11.762;2023-08-31T03:08:35;7.28;;;5.30;;
22160;SDS011;49035;48.812;11.762;2023-08-31T03:11:02;5.60;;;5.00;;
22160;SDS011;49035;48.812;11.762;2023-08-31T03:13:31;5.85;;;5.03;;
22160;SDS011;49035;48.812;11.762;2023-08-31T03:15:57;6.45;;;5.43;;
22160;SDS011;49035;48.812;11.762;2023-08-31T03:18:24;6.03;;;4.57;;
22160;SDS011;49035;48.812;11.762;2023-08-31T03:20:49;6.05;;;4.72;;
22160;SDS011;49035;48.812;11.762;2023-08-31T03:23:15;5.13;;;4.25;;
22160;SDS011;49035;48.812;11.762;2023-08-31T03:25:41;5.40;;;3.97;;
22160;SDS011;49035;48.812;11.762;2023-08-31T03:28:07;5.95;;;4.22;;
22160;SDS011;49035;48.812;11.762;2023-08-31T03:30:32;5.35;;;4.25;;
22160;SDS011;49035;48.812;11.762;2023-08-31T03:32:58;5.18;;;4.13;;
22160;SDS011;49035;48.812;11.762;2023-08-31T03:35:24;6.85;;;4.20;;
22160;SDS011;49035;48.812;11.762;2023-08-31T03:37:51;8.52;;;3.97;;
22160;SDS011;49035;48.812;11.762;2023-08-31T03:40:20;4.75;;;4.20;;
22160;SDS011;49035;48.812;11.762;2023-08-31T03:42:47;6.78;;;3.50;;
22160;SDS011;49035;48.812;11.762;2023-08-31T03:45:14;6.28;;;3.58;;
22160;SDS011;49035;48.812;11.762;2023-08-31T03:47:39;3.90;;;3.40;;
22160;SDS011;49035;48.812;11.762;2023-08-31T03:50:05;5.50;;;3.63;;
22160;SDS011;49035;48.812;11.762;2023-08-31T03:52:31;3.97;;;3.08;;
22160;SDS011;49035;48.812;11.762;2023-08-31T03:54:57;6.22;;;4.03;;
22160;SDS011;49035;48.812;11.762;2023-08-31T03:57:23;8.20;;;3.92;;
22160;SDS011;49035;48.812;11.762;2023-08-31T03:59:48;4.95;;;4.05;;
22160;SDS011;49035;48.812;11.762;2023-08-31T04:02:14;5.63;;;4.28;;
22160;SDS011;49035;48.812;11.762;2023-08-31T04:04:40;5.70;;;4.30;;
22160;SDS011;49035;48.812;11.762;2023-08-31T04:07:05;4.93;;;4.00;;
22160;SDS011;49035;48.812;11.762;2023-08-31T04:09:31;7.50;;;4.53;;
22160;SDS011;49035;48.812;11.762;2023-08-31T04:11:57;6.60;;;4.93;;
22160;SDS011;49035;48.812;11.762;2023-08-31T04:14:22;6.85;;;4.38;;
22160;SDS011;49035;48.812;11.762;2023-08-31T04:16:49;5.22;;;4.00;;
22160;SDS011;49035;48.812;11.762;2023-08-31T04:19:15;4.75;;;4.10;;
22160;SDS011;49035;48.812;11.762;2023-08-31T04:21:42;6.57;;;4.90;;
22160;SDS011;49035;48.812;11.762;2023-08-31T04:24:08;5.78;;;4.60;;
22160;SDS011;49035;48.812;11.762;2023-08-31T04:26:33;7.95;;;4.80;;
22160;SDS011;49035;48.812;11.762;2023-08-31T04:28:59;6.07;;;5.18;;
22160;SDS011;49035;48.812;11.762;2023-08-31T04:31:25;6.72;;;4.65;;
22160;SDS011;49035;48.812;11.762;2023-08-31T04:33:50;7.90;;;4.88;;
22160;SDS011;49035;48.812;11.762;2023-08-31T04:36:19;9.27;;;4.97;;
22160;SDS011;49035;48.812;11.762;2023-08-31T04:38:45;5.82;;;4.80;;
22160;SDS011;49035;48.812;11.762;2023-08-31T04:41:11;9.18;;;5.85;;
22160;SDS011;49035;48.812;11.762;2023-08-31T04:43:37;6.18;;;5.38;;
22160;SDS011;49035;48.812;11.762;2023-08-31T04:46:02;8.65;;;6.10;;
22160;SDS011;49035;48.812;11.762;2023-08-31T04:48:29;11.05;;;6.65;;
22160;SDS011;49035;48.812;11.762;2023-08-31T04:50:57;10.65;;;6.47;;
22160;SDS011;49035;48.812;11.762;2023-08-31T04:53:23;8.77;;;6.40;;
22160;SDS011;49035;48.812;11.762;2023-08-31T04:55:49;10.77;;;6.50;;
22160;SDS011;49035;48.812;11.762;2023-08-31T04:58:14;9.73;;;6.43;;
22160;SDS011;49035;48.812;11.762;2023-08-31T05:00:40;10.00;;;6.78;;
22160;SDS011;49035;48.812;11.762;2023-08-31T05:03:05;9.75;;;7.32;;
22160;SDS011;49035;48.812;11.762;2023-08-31T05:05:31;11.55;;;7.35;;
22160;SDS011;49035;48.812;11.762;2023-08-31T05:07:57;12.60;;;7.90;;
22160;SDS011;49035;48.812;11.762;2023-08-31T05:10:23;11.05;;;7.28;;
22160;SDS011;49035;48.812;11.762;2023-08-31T05:12:49;11.85;;;8.40;;
22160;SDS011;49035;48.812;11.762;2023-08-31T05:15:15;10.90;;;7.35;;
22160;SDS011;49035;48.812;11.762;2023-08-31T05:17:41;11.73;;;8.55;;
22160;SDS011;49035;48.812;11.762;2023-08-31T05:20:07;10.43;;;8.02;;
22160;SDS011;49035;48.812;11.762;2023-08-31T05:25:05;13.02;;;7.72;;
22160;SDS011;49035;48.812;11.762;2023-08-31T05:27:31;11.88;;;8.50;;
22160;SDS011;49035;48.812;11.762;2023-08-31T05:29:56;14.32;;;8.10;;
22160;SDS011;49035;48.812;11.762;2023-08-31T05:32:22;10.55;;;7.38;;
22160;SDS011;49035;48.812;11.762;2023-08-31T05:34:47;12.75;;;6.93;;
22160;SDS011;49035;48.812;11.762;2023-08-31T05:37:13;9.98;;;6.35;;
22160;SDS011;49035;48.812;11.762;2023-08-31T05:39:39;10.68;;;7.00;;
22160;SDS011;49035;48.812;11.762;2023-08-31T05:42:05;10.55;;;6.30;;
22160;SDS011;49035;48.812;11.762;2023-08-31T05:44:30;11.25;;;7.47;;
22160;SDS011;49035;48.812;11.762;2023-08-31T05:46:56;10.88;;;7.65;;
22160;SDS011;49035;48.812;11.762;2023-08-31T05:49:21;9.55;;;6.70;;
22160;SDS011;49035;48.812;11.762;2023-08-31T05:51:47;10.32;;;6.43;;
22160;SDS011;49035;48.812;11.762;2023-08-31T05:54:13;8.48;;;5.60;;
22160;SDS011;49035;48.812;11.762;2023-08-31T05:56:39;8.32;;;5.30;;
22160;SDS011;49035;48.812;11.762;2023-08-31T05:59:05;6.50;;;5.10;;
22160;SDS011;49035;48.812;11.762;2023-08-31T06:01:31;6.20;;;4.20;;
22160;SDS011;49035;48.812;11.762;2023-08-31T06:03:57;4.70;;;4.00;;
22160;SDS011;49035;48.812;11.762;2023-08-31T06:06:23;7.93;;;3.92;;
22160;SDS011;49035;48.812;11.762;2023-08-31T06:08:49;4.55;;;4.00;;
22160;SDS011;49035;48.812;11.762;2023-08-31T06:11:14;6.90;;;4.13;;
22160;SDS011;49035;48.812;11.762;2023-08-31T06:13:40;4.82;;;3.80;;
22160;SDS011;49035;48.812;11.762;2023-08-31T06:16:06;5.25;;;4.28;;
22160;SDS011;49035;48.812;11.762;2023-08-31T06:18:32;4.70;;;3.40;;
22160;SDS011;49035;48.812;11.762;2023-08-31T06:20:57;6.03;;;4.00;;
22160;SDS011;49035;48.812;11.762;2023-08-31T06:23:23;6.00;;;4.30;;
22160;SDS011;49035;48.812;11.762;2023-08-31T06:25:48;5.38;;;4.28;;
22160;SDS011;49035;48.812;11.762;2023-08-31T06:28:14;5.85;;;4.70;;
22160;SDS011;49035;48.812;11.762;2023-08-31T06:30:40;4.25;;;3.63;;
22160;SDS011;49035;48.812;11.762;2023-08-31T06:33:11;3.53;;;3.22;;
22160;SDS011;49035;48.812;11.762;2023-08-31T06:35:37;5.80;;;3.58;;
22160;SDS011;49035;48.812;11.762;2023-08-31T06:38:03;4.10;;;3.08;;
22160;SDS011;49035;48.812;11.762;2023-08-31T06:40:28;6.63;;;4.68;;
22160;SDS011;49035;48.812;11.762;2023-08-31T06:42:54;8.55;;;4.05;;
22160;SDS011;49035;48.812;11.762;2023-08-31T06:45:19;4.53;;;3.40;;
22160;SDS011;49035;48.812;11.762;2023-08-31T06:47:45;5.57;;;3.70;;
22160;SDS011;49035;48.812;11.762;2023-08-31T06:50:11;6.40;;;3.38;;
22160;SDS011;49035;48.812;11.762;2023-08-31T06:52:36;4.60;;;3.30;;
22160;SDS011;49035;48.812;11.762;2023-08-31T06:55:02;6.40;;;3.65;;
22160;SDS011;49035;48.812;11.762;2023-08-31T06:57:28;6.28;;;3.60;;
22160;SDS011;49035;48.812;11.762;2023-08-31T06:59:53;4.13;;;3.47;;
22160;SDS011;49035;48.812;11.762;2023-08-31T07:02:19;10.02;;;3.50;;
22160;SDS011;49035;48.812;11.762;2023-08-31T07:04:47;5.90;;;3.20;;
22160;SDS011;49035;48.812;11.762;2023-08-31T07:07:13;4.65;;;3.17;;
22160;SDS011;49035;48.812;11.762;2023-08-31T07:09:42;3.97;;;3.42;;
22160;SDS011;49035;48.812;11.762;2023-08-31T07:12:09;4.38;;;2.72;;
22160;SDS011;49035;48.812;11.762;2023-08-31T07:14:35;5.55;;;2.88;;
22160;SDS011;49035;48.812;11.762;2023-08-31T07:17:00;3.65;;;2.97;;
22160;SDS011;49035;48.812;11.762;2023-08-31T07:19:26;6.78;;;2.85;;
22160;SDS011;49035;48.812;11.762;2023-08-31T07:21:52;5.10;;;2.75;;
22160;SDS011;49035;48.812;11.762;2023-08-31T07:24:19;4.18;;;2.90;;
22160;SDS011;49035;48.812;11.762;2023-08-31T07:26:46;3.63;;;2.70;;
22160;SDS011;49035;48.812;11.762;2023-08-31T07:29:12;4.65;;;2.42;;
22160;SDS011;49035;48.812;11.762;2023-08-31T07:31:37;4.47;;;2.00;;
22160;SDS011;49035;48.812;11.762;2023-08-31T07:34:03;2.92;;;2.50;;
22160;SDS011;49035;48.812;11.762;2023-08-31T07:36:29;4.35;;;2.40;;
22160;SDS011;49035;48.812;11.762;2023-08-31T07:38:54;5.63;;;2.85;;
22160;SDS011;49035;48.812;11.762;2023-08-31T07:41:20;3.88;;;2.30;;
22160;SDS011;49035;48.812;11.762;2023-08-31T07:43:45;5.20;;;2.53;;
22160;SDS011;49035;48.812;11.762;2023-08-31T07:46:11;10.63;;;2.90;;
22160;SDS011;49035;48.812;11.762;2023-08-31T07:48:37;6.00;;;3.00;;
22160;SDS011;49035;48.812;11.762;2023-08-31T07:51:03;4.95;;;3.17;;
22160;SDS011;49035;48.812;11.762;2023-08-31T07:53:28;3.30;;;2.53;;
22160;SDS011;49035;48.812;11.762;2023-08-31T07:55:54;6.22;;;3.00;;
22160;SDS011;49035;48.812;11.762;2023-08-31T07:58:21;3.67;;;2.55;;
22160;SDS011;49035;48.812;11.762;2023-08-31T08:00:48;2.97;;;2.72;;
22160;SDS011;49035;48.812;11.762;2023-08-31T08:03:14;3.15;;;2.85;;
22160;SDS011;49035;48.812;11.762;2023-08-31T08:05:39;5.47;;;2.78;;
22160;SDS011;49035;48.812;11.762;2023-08-31T08:08:06;3.50;;;2.63;;
22160;SDS011;49035;48.812;11.762;2023-08-31T08:10:32;3.20;;;2.20;;
22160;SDS011;49035;48.812;11.762;2023-08-31T08:12:57;4.07;;;2.50;;
22160;SDS011;49035;48.812;11.762;2023-08-31T08:15:23;4.40;;;2.30;;
22160;SDS011;49035;48.812;11.762;2023-08-31T08:17:49;3.25;;;2.33;;
22160;SDS011;49035;48.812;11.762;2023-08-31T08:20:15;3.17;;;2.10;;
22160;SDS011;49035;48.812;11.762;2023-08-31T08:22:41;4.90;;;1.90;;
22160;SDS011;49035;48.812;11.762;2023-08-31T08:25:06;2.95;;;1.90;;
22160;SDS011;49035;48.812;11.762;2023-08-31T08:27:32;2.72;;;1.70;;
22160;SDS011;49035;48.812;11.762;2023-08-31T08:29:58;2.70;;;2.15;;
22160;SDS011;49035;48.812;11.762;2023-08-31T08:32:24;4.90;;;2.30;;
22160;SDS011;49035;48.812;11.762;2023-08-31T08:34:50;3.58;;;2.08;;
22160;SDS011;49035;48.812;11.762;2023-08-31T08:37:16;4.68;;;2.20;;
22160;SDS011;49035;48.812;11.762;2023-08-31T08:39:42;4.63;;;2.50;;
22160;SDS011;49035;48.812;11.762;2023-08-31T08:42:09;3.50;;;2.47;;
22160;SDS011;49035;48.812;11.762;2023-08-31T08:44:36;3.65;;;1.83;;
22160;SDS011;49035;48.812;11.762;2023-08-31T08:47:02;2.38;;;1.95;;
22160;SDS011;49035;48.812;11.762;2023-08-31T08:49:29;6.68;;;2.50;;
22160;SDS011;49035;48.812;11.762;2023-08-31T08:51:57;4.80;;;2.40;;
22160;SDS011;49035;48.812;11.762;2023-08-31T08:54:24;4.90;;;2.65;;
22160;SDS011;49035;48.812;11.762;2023-08-31T08:56:49;4.82;;;2.35;;
22160;SDS011;49035;48.812;11.762;2023-08-31T08:59:15;5.47;;;2.30;;
22160;SDS011;49035;48.812;11.762;2023-08-31T09:01:41;2.88;;;1.92;;
22160;SDS011;49035;48.812;11.762;2023-08-31T09:04:08;4.38;;;2.40;;
22160;SDS011;49035;48.812;11.762;2023-08-31T09:06:34;3.20;;;2.20;;
22160;SDS011;49035;48.812;11.762;2023-08-31T09:09:00;4.60;;;1.92;;
22160;SDS011;49035;48.812;11.762;2023-08-31T09:11:26;3.40;;;1.90;;
22160;SDS011;49035;48.812;11.762;2023-08-31T09:13:52;3.40;;;2.10;;
22160;SDS011;49035;48.812;11.762;2023-08-31T09:16:25;3.92;;;2.28;;
22160;SDS011;49035;48.812;11.762;2023-08-31T09:18:55;6.43;;;2.50;;
22160;SDS011;49035;48.812;11.762;2023-08-31T09:21:21;4.45;;;2.50;;
22160;SDS011;49035;48.812;11.762;2023-08-31T09:23:58;3.15;;;1.73;;
22160;SDS011;49035;48.812;11.762;2023-08-31T09:26:24;4.18;;;2.25;;
22160;SDS011;49035;48.812;11.762;2023-08-31T09:28:50;5.07;;;2.05;;
22160;SDS011;49035;48.812;11.762;2023-08-31T09:31:16;3.00;;;2.00;;
22160;SDS011;49035;48.812;11.762;2023-08-31T09:33:51;3.85;;;1.80;;
22160;SDS011;49035;48.812;11.762;2023-08-31T09:36:17;5.63;;;2.28;;
22160;SDS011;49035;48.812;11.762;2023-08-31T09:38:45;3.88;;;1.90;;
22160;SDS011;49035;48.812;11.762;2023-08-31T09:41:11;3.53;;;1.95;;
22160;SDS011;49035;48.812;11.762;2023-08-31T09:43:37;5.70;;;2.20;;
22160;SDS011;49035;48.812;11.762;2023-08-31T09:46:03;3.92;;;1.80;;
22160;SDS011;49035;48.812;11.762;2023-08-31T09:48:29;10.90;;;2.40;;
22160;SDS011;49035;48.812;11.762;2023-08-31T09:50:56;2.72;;;1.60;;
22160;SDS011;49035;48.812;11.762;2023-08-31T09:53:25;6.68;;;1.98;;
22160;SDS011;49035;48.812;11.762;2023-08-31T09:55:54;4.45;;;1.88;;
22160;SDS011;49035;48.812;11.762;2023-08-31T09:58:21;3.08;;;1.63;;
22160;SDS011;49035;48.812;11.762;2023-08-31T10:00:48;6.65;;;2.08;;
22160;SDS011;49035;48.812;11.762;2023-08-31T10:03:15;5.22;;;1.70;;
22160;SDS011;49035;48.812;11.762;2023-08-31T10:05:43;6.90;;;1.60;;
22160;SDS011;49035;48.812;11.762;2023-08-31T10:08:09;5.97;;;2.08;;
22160;SDS011;49035;48.812;11.762;2023-08-31T10:10:36;3.25;;;1.80;;
22160;SDS011;49035;48.812;11.762;2023-08-31T10:13:03;3.17;;;1.92;;
22160;SDS011;49035;48.812;11.762;2023-08-31T10:15:33;4.70;;;1.95;;
22160;SDS011;49035;48.812;11.762;2023-08-31T10:18:03;4.53;;;1.67;;
22160;SDS011;49035;48.812;11.762;2023-08-31T10:20:30;3.80;;;1.80;;
22160;SDS011;49035;48.812;11.762;2023-08-31T10:22:58;4.88;;;1.63;;
22160;SDS011;49035;48.812;11.762;2023-08-31T10:25:24;4.50;;;1.73;;
22160;SDS011;49035;48.812;11.762;2023-08-31T10:27:52;6.28;;;1.95;;
22160;SDS011;49035;48.812;11.762;2023-08-31T10:38:16;3.78;;;1.70;;
22160;SDS011;49035;48.812;11.762;2023-08-31T10:46:25;4.70;;;1.83;;
22160;SDS011;49035;48.812;11.762;2023-08-31T10:48:59;2.70;;;1.70;;
22160;SDS011;49035;48.812;11.762;2023-08-31T10:51:33;6.05;;;1.60;;
22160;SDS011;49035;48.812;11.762;2023-08-31T10:54:06;5.78;;;1.88;;
22160;SDS011;49035;48.812;11.762;2023-08-31T10:56:38;7.82;;;1.45;;
22160;SDS011;49035;48.812;11.762;2023-08-31T11:07:34;3.80;;;1.77;;
22160;SDS011;49035;48.812;11.762;2023-08-31T11:10:08;4.13;;;1.65;;
22160;SDS011;49035;48.812;11.762;2023-08-31T11:12:54;4.30;;;1.60;;
22160;SDS011;49035;48.812;11.762;2023-08-31T11:15:23;3.33;;;1.92;;
22160;SDS011;49035;48.812;11.762;2023-08-31T11:17:57;3.53;;;1.70;;
22160;SDS011;49035;48.812;11.762;2023-08-31T11:20:23;3.15;;;1.60;;
22160;SDS011;49035;48.812;11.762;2023-08-31T11:22:56;6.47;;;1.60;;
22160;SDS011;49035;48.812;11.762;2023-08-31T11:25:22;3.05;;;2.08;;
22160;SDS011;49035;48.812;11.762;2023-08-31T11:27:57;2.75;;;1.98;;
22160;SDS011;49035;48.812;11.762;2023-08-31T11:30:31;4.32;;;1.65;;
22160;SDS011;49035;48.812;11.762;2023-08-31T11:33:01;4.63;;;1.73;;
22160;SDS011;49035;48.812;11.762;2023-08-31T11:35:31;5.82;;;1.73;;
22160;SDS011;49035;48.812;11.762;2023-08-31T11:37:58;6.18;;;1.73;;
22160;SDS011;49035;48.812;11.762;2023-08-31T11:40:26;4.05;;;1.70;;
22160;SDS011;49035;48.812;11.762;2023-08-31T11:42:52;4.90;;;1.70;;
22160;SDS011;49035;48.812;11.762;2023-08-31T11:45:18;3.50;;;2.00;;
22160;SDS011;49035;48.812;11.762;2023-08-31T11:47:44;3.63;;;1.70;;
22160;SDS011;49035;48.812;11.762;2023-08-31T11:50:11;3.22;;;1.35;;
22160;SDS011;49035;48.812;11.762;2023-08-31T11:52:39;5.03;;;1.77;;
22160;SDS011;49035;48.812;11.762;2023-08-31T11:55:12;3.20;;;1.73;;
22160;SDS011;49035;48.812;11.762;2023-08-31T11:57:39;3.25;;;1.75;;
22160;SDS011;49035;48.812;11.762;2023-08-31T12:00:05;3.30;;;1.63;;
22160;SDS011;49035;48.812;11.762;2023-08-31T12:02:34;2.42;;;1.65;;
22160;SDS011;49035;48.812;11.762;2023-08-31T12:05:01;3.83;;;1.73;;
22160;SDS011;49035;48.812;11.762;2023-08-31T12:07:26;2.55;;;1.83;;
22160;SDS011;49035;48.812;11.762;2023-08-31T12:09:52;4.05;;;1.58;;
22160;SDS011;49035;48.812;11.762;2023-08-31T12:12:21;3.33;;;1.83;;
22160;SDS011;49035;48.812;11.762;2023-08-31T12:14:47;4.63;;;2.00;;
22160;SDS011;49035;48.812;11.762;2023-08-31T12:17:12;2.88;;;1.40;;
22160;SDS011;49035;48.812;11.762;2023-08-31T12:19:38;3.05;;;1.40;;
22160;SDS011;49035;48.812;11.762;2023-08-31T12:22:04;3.58;;;1.77;;
22160;SDS011;49035;48.812;11.762;2023-08-31T12:24:38;3.42;;;1.73;;
22160;SDS011;49035;48.812;11.762;2023-08-31T12:27:05;4.38;;;1.85;;
22160;SDS011;49035;48.812;11.762;2023-08-31T12:29:31;7.07;;;1.88;;
22160;SDS011;49035;48.812;11.762;2023-08-31T12:31:57;3.65;;;1.63;;
22160;SDS011;49035;48.812;11.762;2023-08-31T12:34:23;6.25;;;2.00;;
22160;SDS011;49035;48.812;11.762;2023-08-31T12:36:48;3.58;;;2.00;;
22160;SDS011;49035;48.812;11.762;2023-08-31T12:39:14;2.25;;;1.60;;
22160;SDS011;49035;48.812;11.762;2023-08-31T12:41:40;4.90;;;2.03;;
22160;SDS011;49035;48.812;11.762;2023-08-31T12:44:06;6.35;;;1.60;;
22160;SDS011;49035;48.812;11.762;2023-08-31T12:46:32;3.90;;;1.88;;
22160;SDS011;49035;48.812;11.762;2023-08-31T12:48:59;2.53;;;1.60;;
22160;SDS011;49035;48.812;11.762;2023-08-31T12:51:26;3.55;;;2.03;;
22160;SDS011;49035;48.812;11.762;2023-08-31T12:53:51;3.90;;;1.45;;
22160;SDS011;49035;48.812;11.762;2023-08-31T12:56:17;2.65;;;1.58;;
22160;SDS011;49035;48.812;11.762;2023-08-31T12:58:50;2.20;;;1.80;;
22160;SDS011;49035;48.812;11.762;2023-08-31T13:01:16;4.60;;;1.80;;
22160;SDS011;49035;48.812;11.762;2023-08-31T13:03:42;2.97;;;1.65;;
22160;SDS011;49035;48.812;11.762;2023-08-31T13:06:08;2.80;;;1.85;;
22160;SDS011;49035;48.812;11.762;2023-08-31T13:08:34;5.18;;;1.92;;
22160;SDS011;49035;48.812;11.762;2023-08-31T13:11:00;3.85;;;2.05;;
22160;SDS011;49035;48.812;11.762;2023-08-31T13:13:25;2.92;;;1.83;;
22160;SDS011;49035;48.812;11.762;2023-08-31T13:15:51;4.38;;;1.83;;
22160;SDS011;49035;48.812;11.762;2023-08-31T13:18:16;4.25;;;1.95;;
22160;SDS011;49035;48.812;11.762;2023-08-31T13:20:49;1.77;;;1.45;;
22160;SDS011;49035;48.812;11.762;2023-08-31T13:23:18;3.78;;;1.67;;
22160;SDS011;49035;48.812;11.762;2023-08-31T13:25:44;3.55;;;2.08;;
22160;SDS011;49035;48.812;11.762;2023-08-31T13:28:10;2.03;;;1.77;;
22160;SDS011;49035;48.812;11.762;2023-08-31T13:30:36;3.22;;;2.20;;
22160;SDS011;49035;48.812;11.762;2023-08-31T13:33:01;2.95;;;1.52;;
22160;SDS011;49035;48.812;11.762;2023-08-31T13:35:29;3.83;;;1.88;;
22160;SDS011;49035;48.812;11.762;2023-08-31T13:37:55;5.63;;;2.03;;
22160;SDS011;49035;48.812;11.762;2023-08-31T13:40:20;5.88;;;2.15;;
22160;SDS011;49035;48.812;11.762;2023-08-31T13:42:56;3.20;;;2.00;;
22160;SDS011;49035;48.812;11.762;2023-08-31T13:45:26;4.75;;;1.80;;
22160;SDS011;49035;48.812;11.762;2023-08-31T13:47:52;2.88;;;1.83;;
22160;SDS011;49035;48.812;11.762;2023-08-31T13:50:20;3.25;;;2.00;;
22160;SDS011;49035;48.812;11.762;2023-08-31T13:52:48;4.47;;;1.60;;
22160;SDS011;49035;48.812;11.762;2023-08-31T13:55:13;4.20;;;1.98;;
22160;SDS011;49035;48.812;11.762;2023-08-31T13:57:40;3.38;;;1.90;;
22160;SDS011;49035;48.812;11.762;2023-08-31T14:00:07;4.53;;;1.83;;
22160;SDS011;49035;48.812;11.762;2023-08-31T14:02:36;3.90;;;2.58;;
22160;SDS011;49035;48.812;11.762;2023-08-31T14:05:03;5.07;;;1.85;;
22160;SDS011;49035;48.812;11.762;2023-08-31T14:07:31;1.45;;;1.35;;
22160;SDS011;49035;48.812;11.762;2023-08-31T14:09:57;5.03;;;1.85;;
22160;SDS011;49035;48.812;11.762;2023-08-31T14:12:23;2.38;;;1.38;;
22160;SDS011;49035;48.812;11.762;2023-08-31T14:14:50;6.38;;;2.00;;
22160;SDS011;49035;48.812;11.762;2023-08-31T14:17:16;3.28;;;1.80;;
22160;SDS011;49035;48.812;11.762;2023-08-31T14:19:41;5.60;;;2.03;;
22160;SDS011;49035;48.812;11.762;2023-08-31T14:22:07;3.22;;;2.00;;
22160;SDS011;49035;48.812;11.762;2023-08-31T14:24:35;2.90;;;2.13;;
22160;SDS011;49035;48.812;11.762;2023-08-31T14:27:01;3.70;;;2.00;;
22160;SDS011;49035;48.812;11.762;2023-08-31T14:29:28;3.67;;;1.88;;
22160;SDS011;49035;48.812;11.762;2023-08-31T14:31:53;3.95;;;1.98;;
22160;SDS011;49035;48.812;11.762;2023-08-31T14:34:20;3.33;;;1.88;;
22160;SDS011;49035;48.812;11.762;2023-08-31T14:36:46;6.43;;;2.00;;
22160;SDS011;49035;48.812;11.762;2023-08-31T14:39:12;4.38;;;1.90;;
22160;SDS011;49035;48.812;11.762;2023-08-31T14:41:37;3.78;;;2.13;;
22160;SDS011;49035;48.812;11.762;2023-08-31T14:44:03;5.53;;;1.95;;
22160;SDS011;49035;48.812;11.762;2023-08-31T14:46:29;5.13;;;1.95;;
22160;SDS011;49035;48.812;11.762;2023-08-31T14:48:54;5.40;;;2.05;;
22160;SDS011;49035;48.812;11.762;2023-08-31T14:51:20;5.10;;;2.08;;
22160;SDS011;49035;48.812;11.762;2023-08-31T14:53:45;2.35;;;1.52;;
22160;SDS011;49035;48.812;11.762;2023-08-31T14:56:11;5.57;;;1.95;;
22160;SDS011;49035;48.812;11.762;2023-08-31T14:58:36;3.85;;;1.90;;
22160;SDS011;49035;48.812;11.762;2023-08-31T15:01:02;3.53;;;2.03;;